Time;durP1;ratioP1;P1;durP2;ratioP2;P2;SDS_P1;SDS_P2;PMS_P1;PMS_P2;Temp;Humidity;BMP_temperature;BMP_pressure;BME280_temperature;BME280_humidity;BME280_pressure;Samples;Min_cycle;Max_cycle;Signal;HPM_P1;HPM_P2
2021/04/17 00:01:01;;;;;;;;;;;10.70;64.00;;;;;;5029611;28;19925;-63
2021/04/17 00:03:27;;;;;;;;;;;10.60;63.90;;;;;;5031640;28;19925;-63
2021/04/17 00:05:54;;;;;;;;;;;10.70;64.10;;;;;;5031392;28;19925;-63
2021/04/17 00:08:20;;;;;;;;;;;10.70;64.10;;;;;;5031226;28;20078;-63
2021/04/17 00:10:46;;;;;;;;;;;10.70;63.90;;;;;;5031261;28;19929;-63
2021/04/17 00:13:13;;;;;;;;;;;10.70;64.00;;;;;;5030352;28;20012;-63
2021/04/17 00:15:39;;;;;;;;;;;10.60;64.00;;;;;;5035167;28;19996;-61
2021/04/17 00:18:06;;;;;;;;;;;10.60;64.10;;;;;;5034381;28;19925;-63
2021/04/17 00:20:32;;;;;;;;;;;10.50;64.40;;;;;;5034947;28;19925;-64
2021/04/17 00:22:58;;;;;;;;;;;10.60;64.50;;;;;;5034184;28;19960;-63
2021/04/17 00:25:24;;;;;;;;;;;10.60;64.50;;;;;;5034811;28;19925;-62
2021/04/17 00:27:51;;;;;;;;;;;10.60;64.60;;;;;;5034094;28;19925;-62
2021/04/17 00:30:18;;;;;;;;;;;10.60;64.90;;;;;;5035204;28;19982;-62
2021/04/17 00:32:44;;;;;;;;;;;10.50;65.10;;;;;;5027458;28;19940;-62
2021/04/17 00:35:11;;;;;;;;;;;10.60;65.30;;;;;;5034351;28;20348;-62
2021/04/17 00:37:37;;;;;;;;;;;10.60;65.50;;;;;;5034633;28;20039;-64
2021/04/17 00:40:04;;;;;;;;;;;10.60;65.70;;;;;;5033855;28;19925;-63
2021/04/17 00:42:31;;;;;;;;;;;10.60;65.60;;;;;;5034505;28;19933;-63
2021/04/17 00:44:57;;;;;;;;;;;10.60;65.80;;;;;;5034317;28;19960;-64
2021/04/17 00:47:24;;;;;;;;;;;10.50;65.60;;;;;;5034128;28;20271;-62
2021/04/17 00:49:50;;;;;;;;;;;10.50;65.60;;;;;;5034096;28;19955;-62
2021/04/17 00:52:16;;;;;;;;;;;10.50;65.90;;;;;;5034253;28;19929;-63
2021/04/17 00:54:43;;;;;;;;;;;10.50;66.20;;;;;;5026746;28;19925;-63
2021/04/17 00:57:09;;;;;;;;;;;10.50;66.30;;;;;;5029237;28;20676;-63
2021/04/17 00:59:35;;;;;;;;;;;10.40;66.30;;;;;;5034251;28;19925;-63
2021/04/17 01:02:02;;;;;;;;;;;10.40;66.80;;;;;;5033666;28;19925;-62
2021/04/17 01:04:31;;;;;;;;;;;10.40;66.90;;;;;;5033971;28;19932;-62
2021/04/17 01:07:02;;;;;;;;;;;10.40;67.10;;;;;;5033331;28;19935;-63
2021/04/17 01:09:32;;;;;;;;;;;10.40;67.30;;;;;;5034115;28;19943;-63
2021/04/17 01:12:00;;;;;;;;;;;10.40;67.60;;;;;;5032997;28;19925;-64
2021/04/17 01:14:27;;;;;;;;;;;10.40;66.90;;;;;;5033749;28;19929;-63
2021/04/17 01:16:55;;;;;;;;;;;10.40;66.80;;;;;;5031635;28;20064;-63
2021/04/17 01:19:28;;;;;;;;;;;10.40;67.20;;;;;;5034168;28;19936;-64
2021/04/17 01:21:56;;;;;;;;;;;10.40;67.30;;;;;;5033093;28;19929;-62
2021/04/17 01:24:25;;;;;;;;;;;10.40;67.30;;;;;;5033587;28;19925;-62
2021/04/17 01:26:52;;;;;;;;;;;10.40;67.50;;;;;;5033239;28;20008;-63
2021/04/17 01:29:19;;;;;;;;;;;10.40;67.80;;;;;;5033509;28;19986;-61
2021/04/17 01:31:45;;;;;;;;;;;10.50;68.20;;;;;;5033806;28;20337;-63
2021/04/17 01:34:11;;;;;;;;;;;10.40;68.40;;;;;;5032878;28;20391;-63
2021/04/17 01:36:38;;;;;;;;;;;10.50;68.50;;;;;;5033618;28;19925;-63
2021/04/17 01:39:06;;;;;;;;;;;10.40;69.50;;;;;;5032784;28;19935;-63
2021/04/17 01:41:34;;;;;;;;;;;10.50;70.80;;;;;;5037396;28;20008;-62
2021/04/17 01:44:03;;;;;;;;;;;10.40;71.50;;;;;;5032961;28;20276;-63
2021/04/17 01:46:32;;;;;;;;;;;10.40;72.10;;;;;;5033468;28;19936;-63
2021/04/17 01:48:59;;;;;;;;;;;10.40;72.20;;;;;;5032772;28;19925;-63
2021/04/17 01:51:26;;;;;;;;;;;10.40;72.60;;;;;;5033307;28;19929;-62
2021/04/17 01:53:53;;;;;;;;;;;10.30;73.40;;;;;;5033205;28;20385;-63
2021/04/17 01:56:20;;;;;;;;;;;10.30;74.10;;;;;;5033340;28;20416;-63
2021/04/17 01:58:48;;;;;;;;;;;10.30;73.40;;;;;;5033154;28;19925;-62
2021/04/17 02:01:17;;;;;;;;;;;10.20;73.40;;;;;;5032932;28;20023;-63
2021/04/17 02:03:44;;;;;;;;;;;10.20;73.70;;;;;;5032992;28;19951;-63
2021/04/17 02:06:10;;;;;;;;;;;10.20;74.10;;;;;;5032411;28;19939;-63
2021/04/17 02:08:36;;;;;;;;;;;10.20;74.00;;;;;;5032814;28;19925;-62
2021/04/17 02:11:03;;;;;;;;;;;10.10;74.30;;;;;;5032038;28;19935;-62
2021/04/17 02:13:29;;;;;;;;;;;10.10;74.30;;;;;;5029836;28;19925;-63
2021/04/17 02:15:57;;;;;;;;;;;10.10;75.00;;;;;;5032215;28;19937;-63
2021/04/17 02:18:27;;;;;;;;;;;10.10;74.90;;;;;;5031631;28;19925;-63
2021/04/17 02:20:58;;;;;;;;;;;10.00;75.50;;;;;;5032314;28;19925;-62
2021/04/17 02:23:25;;;;;;;;;;;10.10;75.80;;;;;;5032120;28;20303;-63
2021/04/17 02:25:51;;;;;;;;;;;10.10;75.70;;;;;;5032285;28;20016;-63
2021/04/17 02:28:17;;;;;;;;;;;10.10;75.90;;;;;;5032402;28;19925;-62
2021/04/17 02:30:43;;;;;;;;;;;10.10;75.50;;;;;;5032547;28;19926;-62
2021/04/17 02:33:10;;;;;;;;;;;10.10;75.90;;;;;;5025128;28;19925;-62
2021/04/17 02:35:37;;;;;;;;;;;10.10;76.20;;;;;;5031897;28;19947;-62
2021/04/17 02:38:03;;;;;;;;;;;10.10;76.00;;;;;;5031902;28;20068;-64
2021/04/17 02:40:29;;;;;;;;;;;10.10;75.80;;;;;;5032030;28;19925;-63
2021/04/17 02:42:55;;;;;;;;;;;10.10;75.20;;;;;;5031981;28;19929;-62
2021/04/17 02:45:22;;;;;;;;;;;10.10;74.90;;;;;;5031872;28;19925;-63
2021/04/17 02:47:48;;;;;;;;;;;10.10;75.00;;;;;;5031922;28;20356;-63
2021/04/17 02:50:14;;;;;;;;;;;10.10;75.10;;;;;;5032019;28;19925;-63
2021/04/17 02:52:41;;;;;;;;;;;10.10;75.60;;;;;;5032179;28;19935;-63
2021/04/17 02:55:08;;;;;;;;;;;10.10;75.40;;;;;;5026453;28;20356;-63
2021/04/17 02:57:34;;;;;;;;;;;10.10;75.20;;;;;;5031086;28;20355;-63
2021/04/17 03:00:00;;;;;;;;;;;10.10;75.50;;;;;;5031425;28;19929;-62
2021/04/17 03:02:27;;;;;;;;;;;10.10;75.50;;;;;;5029905;28;19936;-63
2021/04/17 03:04:53;;;;;;;;;;;10.10;75.00;;;;;;5031299;28;20011;-63
2021/04/17 03:07:19;;;;;;;;;;;10.10;75.20;;;;;;5031985;28;19925;-63
2021/04/17 03:09:46;;;;;;;;;;;10.10;75.10;;;;;;5031742;28;19929;-63
2021/04/17 03:12:12;;;;;;;;;;;10.10;74.00;;;;;;5031380;28;19929;-62
2021/04/17 03:14:40;;;;;;;;;;;10.10;73.50;;;;;;5032252;28;19994;-62
2021/04/17 03:17:07;;;;;;;;;;;10.10;73.60;;;;;;5023861;28;19933;-63
2021/04/17 03:19:33;;;;;;;;;;;10.10;73.60;;;;;;5031413;28;19933;-63
2021/04/17 03:21:59;;;;;;;;;;;10.20;73.60;;;;;;5030140;28;19932;-63
2021/04/17 03:24:26;;;;;;;;;;;10.20;73.20;;;;;;5030959;28;19925;-62
2021/04/17 03:26:53;;;;;;;;;;;10.20;73.00;;;;;;5030605;28;20317;-63
2021/04/17 03:29:19;;;;;;;;;;;10.20;73.00;;;;;;5030334;28;19925;-62
2021/04/17 03:31:46;;;;;;;;;;;10.30;72.30;;;;;;5030669;28;19991;-63
2021/04/17 03:34:12;;;;;;;;;;;10.30;72.30;;;;;;5017156;28;19925;-63
2021/04/17 03:36:38;;;;;;;;;;;10.30;72.20;;;;;;5031875;28;19983;-62
2021/04/17 03:39:05;;;;;;;;;;;10.40;72.30;;;;;;5031124;28;19936;-63
2021/04/17 03:41:31;;;;;;;;;;;10.40;71.70;;;;;;5031828;28;19925;-63
2021/04/17 03:43:58;;;;;;;;;;;10.40;71.30;;;;;;5031506;28;20359;-62
2021/04/17 03:46:24;;;;;;;;;;;10.40;71.10;;;;;;5032190;28;20365;-63
2021/04/17 03:48:51;;;;;;;;;;;10.40;70.90;;;;;;5031000;28;19935;-63
2021/04/17 03:51:17;;;;;;;;;;;10.40;71.10;;;;;;5035022;28;21122;-63
2021/04/17 03:53:43;;;;;;;;;;;10.40;71.00;;;;;;5035608;28;19947;-63
2021/04/17 03:56:09;;;;;;;;;;;10.40;70.70;;;;;;5034627;28;19932;-64
2021/04/17 03:58:36;;;;;;;;;;;10.30;70.70;;;;;;5028604;28;19940;-63
2021/04/17 04:01:03;;;;;;;;;;;10.30;71.20;;;;;;5033383;28;19941;-63
2021/04/17 04:03:29;;;;;;;;;;;10.30;71.10;;;;;;5034690;28;19926;-63
2021/04/17 04:05:55;;;;;;;;;;;10.30;71.20;;;;;;5033961;28;19929;-63
2021/04/17 04:08:21;;;;;;;;;;;10.30;71.10;;;;;;5033101;28;20066;-63
2021/04/17 04:10:48;;;;;;;;;;;10.30;70.80;;;;;;5033820;28;19951;-63
2021/04/17 04:13:14;;;;;;;;;;;10.30;70.80;;;;;;5033313;28;20047;-62
2021/04/17 04:15:40;;;;;;;;;;;10.30;71.00;;;;;;5033559;28;20310;-63
2021/04/17 04:18:07;;;;;;;;;;;10.40;70.80;;;;;;5024346;28;19935;-63
2021/04/17 04:20:33;;;;;;;;;;;10.30;70.70;;;;;;5035249;28;20007;-62
2021/04/17 04:23:02;;;;;;;;;;;10.40;71.00;;;;;;5035230;28;19954;-63
2021/04/17 04:25:28;;;;;;;;;;;10.40;71.00;;;;;;5035483;28;19932;-62
2021/04/17 04:27:55;;;;;;;;;;;10.40;70.70;;;;;;5035061;28;20314;-63
2021/04/17 04:30:22;;;;;;;;;;;10.40;70.60;;;;;;5034880;28;20012;-62
2021/04/17 04:32:49;;;;;;;;;;;10.30;70.70;;;;;;5027512;28;19925;-63
2021/04/17 04:35:16;;;;;;;;;;;10.40;70.90;;;;;;5030201;28;20383;-64
2021/04/17 04:37:42;;;;;;;;;;;10.30;70.80;;;;;;5035395;28;20012;-63
2021/04/17 04:40:09;;;;;;;;;;;10.40;71.10;;;;;;5036937;28;19958;-63
2021/04/17 04:42:35;;;;;;;;;;;10.40;71.40;;;;;;5035155;28;20363;-63
2021/04/17 04:45:03;;;;;;;;;;;10.40;70.50;;;;;;5034753;28;20267;-63
2021/04/17 04:47:29;;;;;;;;;;;10.30;70.50;;;;;;5034761;28;19935;-63
2021/04/17 04:49:56;;;;;;;;;;;10.30;70.70;;;;;;5034807;28;19941;-63
2021/04/17 04:52:23;;;;;;;;;;;10.30;71.10;;;;;;5034390;28;20423;-62
2021/04/17 04:54:49;;;;;;;;;;;10.30;70.90;;;;;;5032217;28;19925;-63
2021/04/17 04:57:15;;;;;;;;;;;10.40;71.00;;;;;;5023899;28;19929;-62
2021/04/17 04:59:42;;;;;;;;;;;10.30;71.00;;;;;;5034238;28;19925;-63
2021/04/17 05:02:08;;;;;;;;;;;10.30;71.10;;;;;;5032653;28;19929;-63
2021/04/17 05:04:34;;;;;;;;;;;10.30;71.10;;;;;;5034565;28;20344;-64
2021/04/17 05:07:00;;;;;;;;;;;10.30;71.00;;;;;;5034484;28;19936;-64
2021/04/17 05:09:28;;;;;;;;;;;10.30;70.70;;;;;;5034019;28;19955;-64
2021/04/17 05:11:54;;;;;;;;;;;10.30;70.80;;;;;;5034672;28;19925;-62
2021/04/17 05:14:20;;;;;;;;;;;10.30;70.80;;;;;;5033572;28;19925;-63
2021/04/17 05:16:46;;;;;;;;;;;10.30;70.80;;;;;;5034028;28;20012;-63
2021/04/17 05:19:12;;;;;;;;;;;10.30;70.90;;;;;;5026823;28;19925;-63
2021/04/17 05:21:39;;;;;;;;;;;10.30;71.00;;;;;;5034291;28;20259;-63
2021/04/17 05:24:08;;;;;;;;;;;10.20;70.80;;;;;;5033573;28;19936;-63
2021/04/17 05:26:35;;;;;;;;;;;10.20;71.00;;;;;;5032834;28;19939;-63
2021/04/17 05:29:03;;;;;;;;;;;10.20;71.30;;;;;;5033777;28;19929;-63
2021/04/17 05:31:34;;;;;;;;;;;10.20;71.30;;;;;;5034012;28;20622;-63
2021/04/17 05:34:01;;;;;;;;;;;10.20;71.50;;;;;;5021401;28;20441;-63
2021/04/17 05:36:27;;;;;;;;;;;10.20;71.50;;;;;;5033546;28;19963;-63
2021/04/17 05:38:53;;;;;;;;;;;10.20;71.50;;;;;;5033270;28;19974;-62
2021/04/17 05:41:19;;;;;;;;;;;10.20;71.70;;;;;;5020996;28;19963;-63
2021/04/17 05:43:46;;;;;;;;;;;10.20;71.50;;;;;;5029650;28;19925;-63
2021/04/17 05:46:13;;;;;;;;;;;10.20;71.50;;;;;;5032438;28;19936;-63
2021/04/17 05:48:39;;;;;;;;;;;10.30;71.50;;;;;;5032724;28;19978;-63
2021/04/17 05:51:05;;;;;;;;;;;10.30;71.50;;;;;;5033043;28;19935;-63
2021/04/17 05:53:32;;;;;;;;;;;10.20;71.30;;;;;;5032999;28;19925;-63
2021/04/17 05:55:59;;;;;;;;;;;10.20;71.40;;;;;;5024700;28;19925;-63
2021/04/17 05:58:25;;;;;;;;;;;10.30;71.40;;;;;;5032932;28;19924;-63
2021/04/17 06:00:52;;;;;;;;;;;10.20;71.30;;;;;;5033638;28;19935;-63
2021/04/17 06:03:18;;;;;;;;;;;10.30;71.70;;;;;;5032031;28;20409;-63
2021/04/17 06:05:44;;;;;;;;;;;10.30;71.90;;;;;;5033593;28;20012;-62
2021/04/17 06:08:10;;;;;;;;;;;10.30;71.90;;;;;;5033103;28;19929;-63
2021/04/17 06:10:37;;;;;;;;;;;10.30;72.00;;;;;;5032476;28;20290;-63
2021/04/17 06:13:03;;;;;;;;;;;10.30;72.30;;;;;;5033620;28;19925;-63
2021/04/17 06:15:29;;;;;;;;;;;10.30;72.10;;;;;;5032842;28;19933;-63
2021/04/17 06:17:56;;;;;;;;;;;10.30;72.00;;;;;;5023343;28;19979;-64
2021/04/17 06:20:22;;;;;;;;;;;10.30;72.00;;;;;;5029462;28;19925;-62
2021/04/17 06:22:48;;;;;;;;;;;10.30;72.00;;;;;;5033475;28;19951;-63
2021/04/17 06:25:15;;;;;;;;;;;10.30;72.20;;;;;;5032515;28;20359;-64
2021/04/17 06:27:41;;;;;;;;;;;10.30;72.30;;;;;;5032972;28;20015;-63
2021/04/17 06:30:08;;;;;;;;;;;10.30;72.30;;;;;;5033114;28;19994;-63
2021/04/17 06:32:34;;;;;;;;;;;10.30;72.00;;;;;;5032644;28;20260;-63
2021/04/17 06:35:01;;;;;;;;;;;10.40;72.30;;;;;;5033061;28;19925;-63
2021/04/17 06:37:27;;;;;;;;;;;10.30;72.10;;;;;;5032536;28;20372;-64
2021/04/17 06:39:54;;;;;;;;;;;10.40;72.10;;;;;;5035139;28;19954;-63
2021/04/17 06:42:21;;;;;;;;;;;10.40;72.10;;;;;;5034077;28;19925;-63
2021/04/17 06:44:47;;;;;;;;;;;10.30;72.10;;;;;;5032830;28;20380;-63
2021/04/17 06:47:15;;;;;;;;;;;10.30;72.30;;;;;;5032591;28;19960;-63
2021/04/17 06:49:42;;;;;;;;;;;10.30;72.60;;;;;;5032921;28;20332;-63
2021/04/17 06:52:10;;;;;;;;;;;10.30;72.70;;;;;;5032733;28;19929;-63
2021/04/17 06:54:37;;;;;;;;;;;10.30;72.80;;;;;;5031613;28;19932;-63
2021/04/17 06:57:04;;;;;;;;;;;10.30;73.10;;;;;;5024670;28;19978;-63
2021/04/17 06:59:31;;;;;;;;;;;10.30;73.30;;;;;;5032322;28;19925;-63
2021/04/17 07:01:58;;;;;;;;;;;10.20;73.30;;;;;;5032654;28;19981;-63
2021/04/17 07:04:24;;;;;;;;;;;10.10;73.60;;;;;;5031203;28;19955;-63
2021/04/17 07:06:50;;;;;;;;;;;10.20;74.00;;;;;;5032842;28;19932;-63
2021/04/17 07:09:19;;;;;;;;;;;10.20;74.00;;;;;;5032384;28;19935;-62
2021/04/17 07:11:46;;;;;;;;;;;10.20;74.30;;;;;;5032808;28;20227;-62
2021/04/17 07:14:14;;;;;;;;;;;10.20;74.30;;;;;;5032735;28;19925;-62
2021/04/17 07:16:56;;;;;;;;;;;10.30;74.50;;;;;;5032102;28;20540;-63
2021/04/17 07:19:23;;;;;;;;;;;10.30;74.50;;;;;;5021386;28;20253;-63
2021/04/17 07:21:50;;;;;;;;;;;10.30;74.80;;;;;;5033565;28;19925;-63
2021/04/17 07:24:27;;;;;;;;;;;10.30;75.00;;;;;;5036331;28;20107;-63
2021/04/17 07:26:53;;;;;;;;;;;10.40;75.30;;;;;;5036579;28;19959;-63
2021/04/17 07:29:19;;;;;;;;;;;10.40;75.40;;;;;;5036058;28;20333;-63
2021/04/17 07:31:51;;;;;;;;;;;10.40;75.10;;;;;;5036312;28;19935;-63
2021/04/17 07:34:18;;;;;;;;;;;10.50;75.00;;;;;;5027957;28;20259;-63
2021/04/17 07:36:47;;;;;;;;;;;10.50;75.30;;;;;;5036201;28;19964;-63
2021/04/17 07:39:27;;;;;;;;;;;10.50;75.40;;;;;;5036205;28;20299;-62
2021/04/17 07:41:58;;;;;;;;;;;10.60;75.40;;;;;;5039330;28;19924;-63
2021/04/17 07:44:29;;;;;;;;;;;10.60;75.50;;;;;;5036095;28;19963;-63
2021/04/17 07:46:55;;;;;;;;;;;10.60;75.50;;;;;;5035865;28;19935;-63
2021/04/17 07:49:22;;;;;;;;;;;10.60;75.60;;;;;;5024018;28;19925;-63
2021/04/17 07:51:55;;;;;;;;;;;10.60;75.90;;;;;;5031144;28;19925;-63
2021/04/17 07:54:21;;;;;;;;;;;10.60;76.00;;;;;;5027156;28;19955;-63
2021/04/17 07:56:48;;;;;;;;;;;10.60;76.30;;;;;;5035312;28;19925;-63
2021/04/17 07:59:19;;;;;;;;;;;10.60;76.60;;;;;;5007827;28;19925;-63
2021/04/17 08:01:45;;;;;;;;;;;10.60;76.60;;;;;;5034657;28;20175;-63
2021/04/17 08:04:12;;;;;;;;;;;10.60;76.60;;;;;;5035521;28;19929;-62
2021/04/17 08:06:38;;;;;;;;;;;10.70;76.70;;;;;;5030168;28;19936;-62
2021/04/17 08:09:06;;;;;;;;;;;10.80;76.80;;;;;;5010504;28;19925;-64
2021/04/17 08:11:33;;;;;;;;;;;10.80;76.70;;;;;;5028472;28;20016;-64
2021/04/17 08:14:00;;;;;;;;;;;10.90;76.90;;;;;;5022586;28;20263;-63
2021/04/17 08:16:27;;;;;;;;;;;11.00;76.60;;;;;;5035282;28;20756;-63
2021/04/17 08:18:53;;;;;;;;;;;11.00;76.40;;;;;;5035678;28;19940;-63
2021/04/17 08:21:20;;;;;;;;;;;11.10;76.40;;;;;;5035091;28;19925;-63
2021/04/17 08:23:48;;;;;;;;;;;11.10;76.50;;;;;;5035555;28;20011;-63
2021/04/17 08:26:14;;;;;;;;;;;11.20;76.40;;;;;;5035193;28;19925;-63
2021/04/17 08:28:41;;;;;;;;;;;11.30;76.20;;;;;;5035222;28;19925;-62
2021/04/17 08:31:21;;;;;;;;;;;11.30;76.10;;;;;;5034895;28;19925;-63
2021/04/17 08:34:02;;;;;;;;;;;11.40;76.20;;;;;;5021192;28;20263;-63
2021/04/17 08:36:32;;;;;;;;;;;11.40;76.00;;;;;;5035018;28;19935;-64
2021/04/17 08:38:58;;;;;;;;;;;11.60;75.90;;;;;;5034982;28;19933;-62
2021/04/17 08:41:37;;;;;;;;;;;11.60;75.60;;;;;;5022749;28;19940;-62
2021/04/17 08:44:18;;;;;;;;;;;11.70;75.80;;;;;;5034206;28;19925;-63
2021/04/17 08:46:46;;;;;;;;;;;11.70;75.60;;;;;;5035533;28;19925;-63
2021/04/17 08:49:19;;;;;;;;;;;11.80;75.60;;;;;;5034825;28;20993;-63
2021/04/17 08:51:45;;;;;;;;;;;11.80;75.50;;;;;;5035121;28;19996;-64
2021/04/17 08:54:17;;;;;;;;;;;11.90;75.40;;;;;;5034458;28;19939;-62
2021/04/17 08:56:48;;;;;;;;;;;11.90;75.00;;;;;;5034344;28;19925;-63
2021/04/17 08:59:18;;;;;;;;;;;12.00;75.10;;;;;;5034740;28;20331;-63
2021/04/17 09:01:44;;;;;;;;;;;12.10;74.90;;;;;;5034487;28;19935;-65
2021/04/17 09:04:12;;;;;;;;;;;12.10;75.00;;;;;;5034337;28;19939;-63
2021/04/17 09:06:40;;;;;;;;;;;12.20;75.40;;;;;;5034706;28;20383;-63
2021/04/17 09:09:24;;;;;;;;;;;12.20;75.30;;;;;;5034169;28;19963;-63
2021/04/17 09:11:51;;;;;;;;;;;12.30;75.00;;;;;;5023512;28;20020;-64
2021/04/17 09:14:37;;;;;;;;;;;12.40;75.00;;;;;;5034600;28;20300;-64
2021/04/17 09:17:05;;;;;;;;;;;12.50;74.90;;;;;;5027072;28;20366;-63
2021/04/17 09:19:50;;;;;;;;;;;12.60;74.60;;;;;;5032926;28;20014;-64
2021/04/17 09:22:31;;;;;;;;;;;12.60;74.70;;;;;;5034217;28;19955;-63
2021/04/17 09:24:59;;;;;;;;;;;12.70;74.50;;;;;;5025556;28;19931;-63
2021/04/17 09:27:26;;;;;;;;;;;12.70;74.00;;;;;;5034415;28;19925;-64
2021/04/17 09:29:56;;;;;;;;;;;12.80;74.00;;;;;;5033919;28;19925;-63
2021/04/17 09:32:22;;;;;;;;;;;12.90;74.20;;;;;;5033467;28;19925;-62
2021/04/17 09:34:48;;;;;;;;;;;12.90;74.00;;;;;;5034453;28;19925;-63
2021/04/17 09:37:14;;;;;;;;;;;13.00;73.70;;;;;;5033493;28;19929;-63
2021/04/17 09:39:44;;;;;;;;;;;13.10;74.00;;;;;;5034504;28;19925;-62
2021/04/17 09:42:11;;;;;;;;;;;13.10;73.80;;;;;;5036068;28;19940;-63
2021/04/17 09:44:41;;;;;;;;;;;13.10;73.80;;;;;;5033902;28;19936;-62
2021/04/17 09:47:09;;;;;;;;;;;13.20;73.40;;;;;;5033456;28;19936;-63
2021/04/17 09:49:37;;;;;;;;;;;13.20;73.30;;;;;;5033312;28;20210;-63
2021/04/17 09:52:04;;;;;;;;;;;13.30;73.20;;;;;;5033463;28;19933;-63
2021/04/17 09:54:30;;;;;;;;;;;13.20;73.80;;;;;;5031685;28;19936;-63
2021/04/17 09:56:57;;;;;;;;;;;13.30;73.50;;;;;;5032807;28;19936;-63
2021/04/17 09:59:24;;;;;;;;;;;13.30;73.60;;;;;;5033530;28;20006;-64
2021/04/17 10:01:51;;;;;;;;;;;13.30;73.40;;;;;;5033491;28;20012;-63
2021/04/17 10:04:17;;;;;;;;;;;13.40;73.20;;;;;;5020274;28;20372;-63
2021/04/17 10:06:43;;;;;;;;;;;13.40;73.20;;;;;;5033360;28;19925;-62
2021/04/17 10:09:11;;;;;;;;;;;13.50;73.10;;;;;;5033383;28;19936;-62
2021/04/17 10:11:38;;;;;;;;;;;13.50;73.20;;;;;;5017378;28;19932;-62
2021/04/17 10:14:05;;;;;;;;;;;13.50;73.20;;;;;;5033200;28;19925;-63
2021/04/17 10:16:33;;;;;;;;;;;13.50;72.70;;;;;;5027124;28;19925;-62
2021/04/17 10:19:00;;;;;;;;;;;13.50;72.80;;;;;;5024702;28;19925;-63
2021/04/17 10:21:27;;;;;;;;;;;13.60;73.10;;;;;;5031776;28;20237;-63
2021/04/17 10:24:12;;;;;;;;;;;13.60;73.20;;;;;;5034159;28;19925;-63
2021/04/17 10:26:47;;;;;;;;;;;13.70;73.40;;;;;;5034023;28;19943;-64
2021/04/17 10:29:13;;;;;;;;;;;13.80;73.50;;;;;;5031289;28;19929;-63
2021/04/17 10:31:40;;;;;;;;;;;13.90;73.70;;;;;;5028031;28;20300;-62
2021/04/17 10:34:07;;;;;;;;;;;14.00;72.90;;;;;;5028671;28;19932;-64
2021/04/17 10:36:33;;;;;;;;;;;14.10;72.20;;;;;;5028033;28;19941;-63
2021/04/17 10:39:05;;;;;;;;;;;14.20;72.40;;;;;;5028604;28;20012;-64
2021/04/17 10:41:32;;;;;;;;;;;14.20;72.10;;;;;;5027264;28;20017;-64
2021/04/17 10:44:09;;;;;;;;;;;14.40;72.30;;;;;;5031830;28;19967;-63
2021/04/17 10:46:42;;;;;;;;;;;14.40;72.00;;;;;;5029303;28;19933;-63
2021/04/17 10:49:09;;;;;;;;;;;14.50;71.80;;;;;;5027288;28;20020;-64
2021/04/17 10:51:36;;;;;;;;;;;14.60;72.00;;;;;;5018442;28;19932;-61
2021/04/17 10:54:03;;;;;;;;;;;14.60;71.70;;;;;;5028302;28;19990;-63
2021/04/17 10:56:30;;;;;;;;;;;14.70;71.60;;;;;;5028114;28;20350;-63
2021/04/17 10:59:02;;;;;;;;;;;14.70;71.60;;;;;;5028988;28;19929;-63
2021/04/17 11:01:30;;;;;;;;;;;14.80;71.80;;;;;;5022379;28;19925;-63
2021/04/17 11:04:00;;;;;;;;;;;14.80;71.80;;;;;;5031176;28;20022;-63
2021/04/17 11:06:28;;;;;;;;;;;14.80;71.50;;;;;;5030107;28;19935;-62
2021/04/17 11:09:04;;;;;;;;;;;14.90;71.90;;;;;;5030040;28;19943;-64
2021/04/17 11:11:30;;;;;;;;;;;14.90;71.30;;;;;;5027986;28;19937;-63
2021/04/17 11:13:57;;;;;;;;;;;14.90;71.20;;;;;;5025142;28;19926;-63
2021/04/17 11:16:34;;;;;;;;;;;15.00;71.30;;;;;;5027698;28;19944;-63
2021/04/17 11:19:01;;;;;;;;;;;15.10;71.40;;;;;;5017648;28;19929;-64
2021/04/17 11:21:27;;;;;;;;;;;15.20;71.20;;;;;;5029701;28;20278;-64
2021/04/17 11:23:56;;;;;;;;;;;15.30;71.10;;;;;;5028604;28;19925;-64
2021/04/17 11:26:23;;;;;;;;;;;15.30;71.00;;;;;;5032354;28;19983;-64
2021/04/17 11:28:50;;;;;;;;;;;15.30;70.80;;;;;;5030708;28;19925;-64
2021/04/17 11:31:17;;;;;;;;;;;15.20;70.50;;;;;;5030080;28;19986;-63
2021/04/17 11:33:44;;;;;;;;;;;15.30;71.10;;;;;;5028996;28;19925;-63
2021/04/17 11:36:12;;;;;;;;;;;15.40;71.40;;;;;;5021622;28;19955;-63
2021/04/17 11:38:38;;;;;;;;;;;15.40;71.00;;;;;;5025571;28;20119;-63
2021/04/17 11:41:04;;;;;;;;;;;15.50;71.00;;;;;;5027536;28;19994;-63
2021/04/17 11:43:31;;;;;;;;;;;15.50;71.00;;;;;;5032302;28;19925;-64
2021/04/17 11:45:57;;;;;;;;;;;15.50;71.00;;;;;;5036614;28;19925;-63
2021/04/17 11:48:23;;;;;;;;;;;15.50;71.20;;;;;;5023848;28;19933;-62
2021/04/17 11:50:50;;;;;;;;;;;15.50;70.90;;;;;;5029582;28;19925;-63
2021/04/17 11:53:20;;;;;;;;;;;15.50;70.90;;;;;;5032218;28;19941;-62
2021/04/17 11:55:47;;;;;;;;;;;15.60;70.70;;;;;;5031810;28;20329;-63
2021/04/17 11:58:13;;;;;;;;;;;15.50;70.80;;;;;;5030975;28;20011;-65
2021/04/17 12:00:39;;;;;;;;;;;15.50;70.80;;;;;;5026837;28;19929;-63
2021/04/17 12:03:06;;;;;;;;;;;15.50;70.80;;;;;;5030616;28;19928;-63
2021/04/17 12:05:32;;;;;;;;;;;15.60;70.90;;;;;;5028468;28;19925;-63
2021/04/17 12:07:58;;;;;;;;;;;15.50;70.50;;;;;;5032352;28;20379;-62
2021/04/17 12:10:25;;;;;;;;;;;15.50;70.80;;;;;;5028536;28;20360;-64
2021/04/17 12:12:52;;;;;;;;;;;15.50;71.10;;;;;;5032237;28;20283;-62
2021/04/17 12:15:18;;;;;;;;;;;15.50;71.00;;;;;;5045471;28;20024;-63
2021/04/17 12:17:44;;;;;;;;;;;15.50;70.90;;;;;;5035423;28;19933;-63
2021/04/17 12:20:11;;;;;;;;;;;15.50;71.00;;;;;;5032296;28;19943;-63
2021/04/17 12:22:38;;;;;;;;;;;15.60;71.20;;;;;;5034657;28;19925;-63
2021/04/17 12:25:05;;;;;;;;;;;15.60;71.10;;;;;;5034137;28;19986;-64
2021/04/17 12:27:32;;;;;;;;;;;15.70;71.10;;;;;;5035434;28;19940;-63
2021/04/17 12:29:59;;;;;;;;;;;15.70;71.90;;;;;;5032551;28;19925;-62
2021/04/17 12:32:26;;;;;;;;;;;15.70;71.00;;;;;;5032645;28;20035;-64
2021/04/17 12:34:52;;;;;;;;;;;15.70;71.00;;;;;;5033108;28;19925;-63
2021/04/17 12:37:19;;;;;;;;;;;15.70;70.70;;;;;;5039472;28;19933;-63
2021/04/17 12:39:45;;;;;;;;;;;15.70;70.60;;;;;;5034163;28;19938;-63
2021/04/17 12:42:11;;;;;;;;;;;15.80;70.90;;;;;;5032934;28;22232;-63
2021/04/17 12:44:38;;;;;;;;;;;15.80;70.70;;;;;;5035211;28;20019;-62
2021/04/17 12:47:05;;;;;;;;;;;15.80;70.90;;;;;;5033199;28;20083;-64
2021/04/17 12:49:31;;;;;;;;;;;15.80;71.00;;;;;;5033825;28;19929;-63
2021/04/17 12:51:57;;;;;;;;;;;15.90;71.30;;;;;;5034853;28;19935;-64
2021/04/17 12:54:23;;;;;;;;;;;15.90;71.10;;;;;;5034951;28;19924;-63
2021/04/17 12:56:50;;;;;;;;;;;15.90;71.00;;;;;;5026851;28;20393;-63
2021/04/17 12:59:16;;;;;;;;;;;15.90;71.00;;;;;;5027207;28;19925;-63
2021/04/17 13:01:44;;;;;;;;;;;15.90;70.90;;;;;;5022273;28;19925;-61
2021/04/17 13:04:10;;;;;;;;;;;16.00;70.60;;;;;;5034415;28;19940;-64
2021/04/17 13:06:36;;;;;;;;;;;16.00;70.60;;;;;;5044586;28;19943;-63
2021/04/17 13:09:02;;;;;;;;;;;16.10;71.00;;;;;;5034329;28;19924;-64
2021/04/17 13:11:28;;;;;;;;;;;16.10;71.20;;;;;;5034999;28;19978;-62
2021/04/17 13:13:55;;;;;;;;;;;16.10;71.10;;;;;;5027263;28;19925;-64
2021/04/17 13:16:21;;;;;;;;;;;16.20;71.20;;;;;;5034321;28;19925;-65
2021/04/17 13:18:48;;;;;;;;;;;16.10;71.20;;;;;;5034542;28;19929;-63
2021/04/17 13:21:14;;;;;;;;;;;16.10;71.20;;;;;;5038056;28;20432;-63
2021/04/17 13:23:40;;;;;;;;;;;16.10;71.20;;;;;;5034361;28;19933;-65
2021/04/17 13:26:07;;;;;;;;;;;16.10;71.20;;;;;;5034116;28;19978;-63
2021/04/17 13:28:33;;;;;;;;;;;16.10;71.20;;;;;;5034335;28;19925;-63
2021/04/17 13:31:00;;;;;;;;;;;16.10;71.30;;;;;;5028936;28;19943;-63
2021/04/17 13:33:26;;;;;;;;;;;16.10;71.50;;;;;;5032701;28;20015;-63
2021/04/17 13:35:53;;;;;;;;;;;16.10;71.60;;;;;;5036187;28;19925;-63
2021/04/17 13:38:19;;;;;;;;;;;16.10;71.60;;;;;;5030157;28;19959;-63
2021/04/17 13:40:46;;;;;;;;;;;16.20;71.00;;;;;;5033615;28;19929;-63
2021/04/17 13:43:12;;;;;;;;;;;16.20;70.90;;;;;;5024828;28;19925;-62
2021/04/17 13:45:38;;;;;;;;;;;16.20;70.00;;;;;;5035207;28;20258;-63
2021/04/17 13:48:05;;;;;;;;;;;16.20;69.60;;;;;;5029356;28;19935;-63
2021/04/17 13:50:31;;;;;;;;;;;16.10;69.60;;;;;;5031840;28;19940;-64
2021/04/17 13:52:58;;;;;;;;;;;16.10;69.90;;;;;;5028606;28;20260;-65
2021/04/17 13:55:24;;;;;;;;;;;16.10;70.10;;;;;;5029165;28;20019;-64
2021/04/17 13:57:51;;;;;;;;;;;16.00;70.20;;;;;;5033413;28;20148;-64
2021/04/17 14:00:17;;;;;;;;;;;16.10;70.90;;;;;;5032066;28;19933;-63
2021/04/17 14:02:44;;;;;;;;;;;16.10;71.40;;;;;;5033208;28;19971;-63
2021/04/17 14:05:10;;;;;;;;;;;16.10;71.60;;;;;;5032955;28;20262;-63
2021/04/17 14:07:37;;;;;;;;;;;16.00;71.70;;;;;;5035059;28;19936;-63
2021/04/17 14:10:06;;;;;;;;;;;16.10;71.70;;;;;;5031978;28;20252;-63
2021/04/17 14:12:32;;;;;;;;;;;16.10;72.00;;;;;;5031307;28;19933;-65
2021/04/17 14:14:58;;;;;;;;;;;16.10;72.60;;;;;;5032546;28;19931;-64
2021/04/17 14:17:24;;;;;;;;;;;16.10;72.80;;;;;;5032550;28;19925;-63